Time;durP1;ratioP1;P1;durP2;ratioP2;P2;SDS_P1;SDS_P2;PMS_P1;PMS_P2;Temp;Humidity;BMP_temperature;BMP_pressure;BME280_temperature;BME280_humidity;BME280_pressure;Samples;Min_cycle;Max_cycle;Signal;HPM_P1;HPM_P2
2023/05/25 00:02:03;;;;;;;17.75;5.70;;;;;;;;;;5027362;28;20658;-75
2023/05/25 00:04:29;;;;;;;13.88;6.07;;;;;;;;;;5025911;28;20201;-75
2023/05/25 00:06:55;;;;;;;14.52;5.60;;;;;;;;;;5015831;28;20190;-75
2023/05/25 00:09:20;;;;;;;19.08;5.47;;;;;;;;;;5026191;28;20221;-75
2023/05/25 00:11:45;;;;;;;12.40;5.38;;;;;;;;;;5023095;28;20213;-75
2023/05/25 00:14:11;;;;;;;14.70;6.82;;;;;;;;;;5052010;28;20256;-75
2023/05/25 00:16:36;;;;;;;14.88;6.50;;;;;;;;;;5020406;28;20226;-75
2023/05/25 00:19:06;;;;;;;13.13;6.13;;;;;;;;;;5019887;28;20548;-75
2023/05/25 00:21:33;;;;;;;16.77;6.07;;;;;;;;;;5030051;28;20194;-75
2023/05/25 00:23:59;;;;;;;16.25;6.03;;;;;;;;;;5044461;28;20216;-75
2023/05/25 00:26:25;;;;;;;16.63;6.28;;;;;;;;;;5050732;28;20181;-75
2023/05/25 00:28:50;;;;;;;16.58;6.30;;;;;;;;;;5036546;28;20225;-75
2023/05/25 00:31:16;;;;;;;10.88;5.88;;;;;;;;;;5041556;28;20311;-75
2023/05/25 00:33:41;;;;;;;16.35;6.20;;;;;;;;;;5023488;28;20186;-75
2023/05/25 00:36:07;;;;;;;11.60;6.07;;;;;;;;;;5046986;28;20645;-75
2023/05/25 00:38:33;;;;;;;17.77;5.80;;;;;;;;;;5035955;28;20230;-75
2023/05/25 00:40:58;;;;;;;11.48;5.35;;;;;;;;;;5043361;28;20648;-75
2023/05/25 00:43:24;;;;;;;9.02;5.55;;;;;;;;;;5035302;28;20193;-75
2023/05/25 00:45:50;;;;;;;11.25;5.95;;;;;;;;;;5034562;28;20682;-75
2023/05/25 00:48:16;;;;;;;16.60;6.95;;;;;;;;;;5026171;28;20210;-75
2023/05/25 00:50:43;;;;;;;16.48;6.75;;;;;;;;;;5016232;28;20201;-75
2023/05/25 00:53:11;;;;;;;16.70;7.28;;;;;;;;;;5035933;28;20215;-75
2023/05/25 00:55:52;;;;;;;15.48;6.57;;;;;;;;;;5038378;28;20193;-75
2023/05/25 00:58:20;;;;;;;15.88;6.43;;;;;;;;;;5037111;28;20185;-75
2023/05/25 01:00:48;;;;;;;14.00;6.93;;;;;;;;;;5039221;28;20680;-75
2023/05/25 01:03:20;;;;;;;18.05;6.40;;;;;;;;;;5030102;28;20186;-75
2023/05/25 01:05:47;;;;;;;13.38;6.15;;;;;;;;;;5041852;28;20196;-75
2023/05/25 01:08:15;;;;;;;12.80;6.23;;;;;;;;;;5043209;28;20628;-75
2023/05/25 01:10:41;;;;;;;11.60;5.65;;;;;;;;;;5035287;28;20212;-75
2023/05/25 01:13:08;;;;;;;13.48;6.22;;;;;;;;;;5037570;28;20622;-75
2023/05/25 01:15:34;;;;;;;17.20;7.00;;;;;;;;;;5043087;28;20440;-75
2023/05/25 01:18:00;;;;;;;15.68;6.88;;;;;;;;;;5026879;28;20182;-75
2023/05/25 01:20:29;;;;;;;13.32;6.65;;;;;;;;;;5025751;28;20214;-75
2023/05/25 01:23:03;;;;;;;16.33;7.00;;;;;;;;;;5024577;28;20718;-75
2023/05/25 01:25:29;;;;;;;12.10;6.78;;;;;;;;;;5049599;28;20189;-75
2023/05/25 01:28:02;;;;;;;14.18;7.28;;;;;;;;;;5040325;28;20293;-75
2023/05/25 01:30:31;;;;;;;13.68;6.90;;;;;;;;;;5037305;28;20604;-75
2023/05/25 01:32:58;;;;;;;19.08;7.28;;;;;;;;;;5032514;28;20193;-75
2023/05/25 01:35:24;;;;;;;20.67;8.48;;;;;;;;;;5026494;28;20218;-75
2023/05/25 01:37:50;;;;;;;17.23;7.63;;;;;;;;;;5033972;28;20214;-75
2023/05/25 01:40:16;;;;;;;15.60;7.25;;;;;;;;;;5022309;28;20307;-75
2023/05/25 01:42:42;;;;;;;16.80;7.28;;;;;;;;;;5029622;28;20674;-75
2023/05/25 01:45:09;;;;;;;17.40;7.28;;;;;;;;;;5039407;28;20198;-75
2023/05/25 01:47:42;;;;;;;18.58;6.88;;;;;;;;;;5039696;28;20745;-75
2023/05/25 01:50:21;;;;;;;12.80;6.70;;;;;;;;;;5026997;28;20201;-75
2023/05/25 01:53:12;;;;;;;13.65;7.30;;;;;;;;;;5028878;28;20193;-75
2023/05/25 01:55:56;;;;;;;12.23;6.70;;;;;;;;;;4990957;28;20284;-75
2023/05/25 01:58:23;;;;;;;16.70;7.25;;;;;;;;;;5033909;28;20189;-75
2023/05/25 02:00:50;;;;;;;16.35;7.13;;;;;;;;;;5043297;28;20240;-75
2023/05/25 02:03:16;;;;;;;20.08;7.57;;;;;;;;;;5030309;28;20335;-75
2023/05/25 02:05:42;;;;;;;14.48;7.03;;;;;;;;;;5038992;28;20627;-75
2023/05/25 02:08:08;;;;;;;15.85;7.35;;;;;;;;;;5034898;28;20797;-75
2023/05/25 02:10:33;;;;;;;14.07;6.97;;;;;;;;;;5021095;28;20198;-75
2023/05/25 02:12:59;;;;;;;17.38;7.45;;;;;;;;;;5041611;28;20194;-75
2023/05/25 02:15:24;;;;;;;16.88;7.53;;;;;;;;;;5027550;28;20194;-75
2023/05/25 02:17:50;;;;;;;15.07;7.53;;;;;;;;;;5025611;28;20554;-75
2023/05/25 02:20:15;;;;;;;13.32;7.55;;;;;;;;;;5038984;28;20587;-75
2023/05/25 02:22:41;;;;;;;12.57;6.75;;;;;;;;;;5015670;28;20186;-75
2023/05/25 02:25:07;;;;;;;16.10;7.88;;;;;;;;;;5032702;28;20206;-75
2023/05/25 02:27:34;;;;;;;16.35;8.13;;;;;;;;;;5034027;28;20206;-75
2023/05/25 02:30:00;;;;;;;16.48;7.15;;;;;;;;;;5037538;28;20216;-75
2023/05/25 02:32:28;;;;;;;15.05;7.70;;;;;;;;;;5031923;28;20710;-75
2023/05/25 02:34:53;;;;;;;15.40;7.53;;;;;;;;;;5033690;28;20517;-75
2023/05/25 02:37:20;;;;;;;15.32;7.95;;;;;;;;;;5026277;28;20203;-75
2023/05/25 02:39:45;;;;;;;14.68;7.63;;;;;;;;;;5038137;28;20615;-75
2023/05/25 02:42:11;;;;;;;14.07;8.10;;;;;;;;;;5029304;28;20190;-75
2023/05/25 02:44:36;;;;;;;17.00;8.38;;;;;;;;;;5019271;28;20596;-75
2023/05/25 02:47:01;;;;;;;15.63;8.20;;;;;;;;;;5015166;28;20590;-75
2023/05/25 02:49:28;;;;;;;16.33;8.07;;;;;;;;;;5020022;28;20222;-75
2023/05/25 02:51:54;;;;;;;13.25;7.75;;;;;;;;;;5020106;28;20279;-75
2023/05/25 02:54:20;;;;;;;17.33;8.10;;;;;;;;;;5027462;28;20190;-75
2023/05/25 02:56:45;;;;;;;15.33;7.17;;;;;;;;;;5019560;28;20706;-74
2023/05/25 02:59:11;;;;;;;20.40;7.63;;;;;;;;;;5025500;28;20215;-75
2023/05/25 03:01:36;;;;;;;18.58;8.10;;;;;;;;;;5037852;28;20213;-74
2023/05/25 03:04:02;;;;;;;19.80;7.93;;;;;;;;;;5025852;28;20276;-75
2023/05/25 03:06:27;;;;;;;12.40;7.90;;;;;;;;;;5015683;28;20194;-75
2023/05/25 03:08:53;;;;;;;15.23;8.27;;;;;;;;;;5032543;28;20214;-74
2023/05/25 03:11:18;;;;;;;17.95;8.48;;;;;;;;;;5025611;28;20753;-74
2023/05/25 03:13:43;;;;;;;17.42;8.30;;;;;;;;;;5035003;28;20673;-74
2023/05/25 03:16:09;;;;;;;17.88;8.07;;;;;;;;;;5046857;28;20198;-75
2023/05/25 03:18:34;;;;;;;17.15;8.32;;;;;;;;;;5027822;28;20194;-75
2023/05/25 03:21:00;;;;;;;22.27;8.23;;;;;;;;;;5028239;28;20220;-75
2023/05/25 03:23:25;;;;;;;15.57;8.25;;;;;;;;;;5030219;28;20283;-74
2023/05/25 03:25:51;;;;;;;15.90;7.88;;;;;;;;;;5037186;28;20194;-74
2023/05/25 03:28:16;;;;;;;14.98;7.95;;;;;;;;;;5039155;28;20218;-75
2023/05/25 03:30:41;;;;;;;16.15;7.43;;;;;;;;;;5037343;28;20186;-74
2023/05/25 03:33:07;;;;;;;20.33;8.07;;;;;;;;;;5036806;28;20666;-75
2023/05/25 03:35:32;;;;;;;16.47;8.40;;;;;;;;;;5041950;28;20654;-74
2023/05/25 03:37:57;;;;;;;13.73;8.32;;;;;;;;;;5041268;28;20251;-74
2023/05/25 03:40:23;;;;;;;18.08;7.80;;;;;;;;;;5046495;28;20193;-74
2023/05/25 03:42:48;;;;;;;13.07;8.23;;;;;;;;;;5036439;28;20190;-74
2023/05/25 03:45:14;;;;;;;16.20;8.02;;;;;;;;;;5039141;28;20190;-74
2023/05/25 03:47:39;;;;;;;15.57;8.32;;;;;;;;;;5034960;28;20215;-74
2023/05/25 03:50:06;;;;;;;16.88;8.85;;;;;;;;;;5030646;28;20277;-74
2023/05/25 03:52:32;;;;;;;14.27;8.17;;;;;;;;;;5029311;28;20193;-74
2023/05/25 03:54:57;;;;;;;15.17;8.57;;;;;;;;;;5029213;28;20484;-74
2023/05/25 03:57:23;;;;;;;18.50;8.40;;;;;;;;;;5024624;28;20218;-74
2023/05/25 03:59:48;;;;;;;14.38;7.85;;;;;;;;;;5036974;28;20220;-74
2023/05/25 04:02:14;;;;;;;15.52;9.15;;;;;;;;;;5025339;28;20213;-74
2023/05/25 04:04:40;;;;;;;13.20;8.05;;;;;;;;;;5029646;28;20190;-74
2023/05/25 04:07:06;;;;;;;13.45;8.52;;;;;;;;;;5023802;28;20277;-75
2023/05/25 04:09:32;;;;;;;16.60;8.98;;;;;;;;;;5037126;28;20308;-74
2023/05/25 04:11:57;;;;;;;16.35;8.38;;;;;;;;;;5033252;28;20217;-74
2023/05/25 04:14:22;;;;;;;19.65;9.25;;;;;;;;;;5029708;28;20264;-74
2023/05/25 04:16:48;;;;;;;15.57;8.35;;;;;;;;;;5038602;28;20202;-74
2023/05/25 04:19:13;;;;;;;14.95;8.48;;;;;;;;;;5025925;28;20244;-74
2023/05/25 04:21:39;;;;;;;14.23;8.27;;;;;;;;;;5025762;28;20531;-75
2023/05/25 04:24:05;;;;;;;15.02;8.38;;;;;;;;;;5030487;28;20250;-74
2023/05/25 04:26:30;;;;;;;15.88;8.27;;;;;;;;;;5028326;28;20273;-74
2023/05/25 04:28:56;;;;;;;16.90;8.32;;;;;;;;;;5028481;28;20611;-74
2023/05/25 04:31:23;;;;;;;15.18;8.60;;;;;;;;;;5022897;28;20251;-74
2023/05/25 04:33:49;;;;;;;13.40;7.53;;;;;;;;;;5023088;28;20184;-74
2023/05/25 04:36:14;;;;;;;18.20;8.38;;;;;;;;;;5040449;28;20600;-74
2023/05/25 04:38:40;;;;;;;14.88;8.25;;;;;;;;;;5046140;28;20653;-74
2023/05/25 04:41:07;;;;;;;16.65;8.25;;;;;;;;;;5035610;28;20185;-75
2023/05/25 04:43:32;;;;;;;11.70;7.43;;;;;;;;;;5029741;28;20552;-75
2023/05/25 04:45:58;;;;;;;19.83;8.75;;;;;;;;;;5028681;28;20589;-75
2023/05/25 04:48:33;;;;;;;20.17;8.85;;;;;;;;;;5019709;28;20733;-74
2023/05/25 04:51:01;;;;;;;16.20;8.27;;;;;;;;;;5014604;28;20536;-75
2023/05/25 04:53:28;;;;;;;21.02;8.63;;;;;;;;;;5022546;28;20194;-76
2023/05/25 04:55:54;;;;;;;16.77;8.57;;;;;;;;;;5019027;28;20335;-73
2023/05/25 04:58:21;;;;;;;21.60;8.52;;;;;;;;;;5019147;28;20676;-74
2023/05/25 05:00:46;;;;;;;17.13;8.60;;;;;;;;;;5026349;28;20251;-74
2023/05/25 05:03:12;;;;;;;19.50;8.05;;;;;;;;;;5026582;28;20360;-74
2023/05/25 05:05:37;;;;;;;18.77;8.90;;;;;;;;;;5035418;28;20272;-73
2023/05/25 05:08:03;;;;;;;18.75;8.57;;;;;;;;;;5029224;28;20213;-74
2023/05/25 05:10:28;;;;;;;22.52;9.15;;;;;;;;;;5023683;28;20190;-74
2023/05/25 05:12:54;;;;;;;14.40;8.88;;;;;;;;;;5024989;28;20197;-74
2023/05/25 05:15:19;;;;;;;20.88;9.05;;;;;;;;;;5026938;28;20202;-74
2023/05/25 05:17:45;;;;;;;20.83;8.70;;;;;;;;;;5023577;28;20244;-74
2023/05/25 05:20:11;;;;;;;18.35;9.60;;;;;;;;;;5031533;28;20212;-74
2023/05/25 05:22:36;;;;;;;19.10;8.88;;;;;;;;;;5020753;28;20194;-73
2023/05/25 05:25:02;;;;;;;26.45;10.30;;;;;;;;;;5017112;28;20194;-73
2023/05/25 05:27:27;;;;;;;22.30;9.00;;;;;;;;;;5024065;28;20269;-73
2023/05/25 05:29:52;;;;;;;21.17;8.40;;;;;;;;;;5020925;28;20276;-74
2023/05/25 05:32:18;;;;;;;20.48;8.27;;;;;;;;;;5025690;28;20363;-74
2023/05/25 05:34:43;;;;;;;28.00;8.98;;;;;;;;;;5029956;28;20190;-73
2023/05/25 05:37:08;;;;;;;15.45;8.55;;;;;;;;;;5033536;28;20703;-73
2023/05/25 05:39:34;;;;;;;21.05;8.07;;;;;;;;;;5019260;28;20278;-74
2023/05/25 05:42:00;;;;;;;17.95;8.48;;;;;;;;;;5021160;28;20662;-74
2023/05/25 05:44:26;;;;;;;15.32;8.60;;;;;;;;;;5021495;28;20191;-74
2023/05/25 05:46:51;;;;;;;22.20;10.15;;;;;;;;;;5029086;28;20194;-74
2023/05/25 05:49:16;;;;;;;18.65;8.40;;;;;;;;;;5027896;28;20214;-74
2023/05/25 05:51:42;;;;;;;22.35;9.02;;;;;;;;;;5024682;28;20220;-75
2023/05/25 05:54:07;;;;;;;22.45;8.07;;;;;;;;;;5017749;28;20251;-74
2023/05/25 05:56:32;;;;;;;20.98;9.15;;;;;;;;;;5024773;28;20289;-75
2023/05/25 05:58:58;;;;;;;17.88;8.32;;;;;;;;;;5030446;28;20197;-75
2023/05/25 06:01:24;;;;;;;22.55;8.75;;;;;;;;;;5037579;28;20728;-74
2023/05/25 06:03:51;;;;;;;22.20;9.00;;;;;;;;;;5028616;28;20197;-75
2023/05/25 06:06:16;;;;;;;14.95;7.68;;;;;;;;;;5026630;28;20186;-74
2023/05/25 06:08:42;;;;;;;18.98;7.75;;;;;;;;;;5031903;28;20233;-75
2023/05/25 06:11:08;;;;;;;16.90;7.93;;;;;;;;;;5025240;28;20186;-75
2023/05/25 06:13:33;;;;;;;20.25;7.68;;;;;;;;;;5025635;28;20274;-75
2023/05/25 06:15:58;;;;;;;22.15;9.05;;;;;;;;;;5017229;28;20194;-74
2023/05/25 06:18:24;;;;;;;20.33;8.50;;;;;;;;;;5017141;28;20197;-75
2023/05/25 06:20:49;;;;;;;23.02;8.93;;;;;;;;;;5016892;28;20190;-75
2023/05/25 06:23:17;;;;;;;18.60;8.65;;;;;;;;;;5023081;28;20201;-75
2023/05/25 06:25:42;;;;;;;18.60;8.80;;;;;;;;;;5030192;28;20557;-75
2023/05/25 06:28:08;;;;;;;15.88;8.45;;;;;;;;;;5022986;28;20206;-74
2023/05/25 06:30:33;;;;;;;21.30;9.25;;;;;;;;;;5031744;28;20204;-73
2023/05/25 06:32:59;;;;;;;18.70;9.13;;;;;;;;;;5029792;28;20228;-74
2023/05/25 06:35:24;;;;;;;19.05;9.40;;;;;;;;;;5026633;28;20200;-75
2023/05/25 06:37:50;;;;;;;19.90;9.27;;;;;;;;;;5023127;28;20194;-75
2023/05/25 06:40:15;;;;;;;22.52;10.07;;;;;;;;;;5017550;28;20572;-75
2023/05/25 06:42:41;;;;;;;17.58;9.40;;;;;;;;;;5017644;28;20808;-75
2023/05/25 06:45:07;;;;;;;21.80;9.90;;;;;;;;;;5022008;28;20179;-75
2023/05/25 06:47:32;;;;;;;16.75;8.77;;;;;;;;;;5030716;28;20280;-75
2023/05/25 06:49:58;;;;;;;20.58;9.75;;;;;;;;;;5023726;28;20236;-75
2023/05/25 06:52:26;;;;;;;16.17;9.63;;;;;;;;;;5023994;28;20206;-75
2023/05/25 06:54:52;;;;;;;22.38;10.77;;;;;;;;;;5027966;28;20265;-75
2023/05/25 06:57:17;;;;;;;21.83;10.82;;;;;;;;;;5014172;28;20581;-75
2023/05/25 06:59:43;;;;;;;26.48;11.18;;;;;;;;;;5020289;28;20678;-75
2023/05/25 07:02:08;;;;;;;26.25;11.57;;;;;;;;;;5027449;28;20256;-73
2023/05/25 07:04:33;;;;;;;21.40;10.88;;;;;;;;;;5019923;28;20197;-75
2023/05/25 07:06:59;;;;;;;20.90;10.38;;;;;;;;;;5018165;28;20275;-76
2023/05/25 07:09:25;;;;;;;25.65;10.52;;;;;;;;;;5025999;28;20222;-75
2023/05/25 07:11:50;;;;;;;21.02;10.88;;;;;;;;;;5025376;28;20661;-75
2023/05/25 07:14:16;;;;;;;22.52;10.32;;;;;;;;;;5021056;28;20269;-76
2023/05/25 07:16:43;;;;;;;24.92;10.52;;;;;;;;;;5023963;28;20221;-75
2023/05/25 07:19:10;;;;;;;25.73;9.98;;;;;;;;;;5031117;28;20205;-74
2023/05/25 07:21:35;;;;;;;23.20;10.32;;;;;;;;;;5030764;28;20201;-74
2023/05/25 07:24:01;;;;;;;20.60;9.95;;;;;;;;;;5028931;28;20522;-75
2023/05/25 07:26:27;;;;;;;21.55;9.85;;;;;;;;;;5028823;28;20612;-74
2023/05/25 07:28:52;;;;;;;19.35;9.27;;;;;;;;;;5021679;28;20359;-74
2023/05/25 07:31:18;;;;;;;20.35;9.85;;;;;;;;;;5027640;28;20224;-74
2023/05/25 07:33:43;;;;;;;23.25;10.07;;;;;;;;;;5016359;28;20190;-74
2023/05/25 07:36:09;;;;;;;19.30;9.63;;;;;;;;;;5022886;28;20559;-74
2023/05/25 07:38:35;;;;;;;17.88;9.65;;;;;;;;;;5023932;28;20672;-75
2023/05/25 07:41:00;;;;;;;20.77;10.52;;;;;;;;;;5032756;28;20194;-74
2023/05/25 07:43:26;;;;;;;22.05;8.70;;;;;;;;;;5020405;28;20575;-75
2023/05/25 07:45:52;;;;;;;19.95;7.75;;;;;;;;;;5022567;28;20293;-75
2023/05/25 07:48:18;;;;;;;17.88;7.30;;;;;;;;;;5016516;28;20210;-75
2023/05/25 07:50:43;;;;;;;20.85;7.32;;;;;;;;;;5031968;28;20194;-72
2023/05/25 07:53:09;;;;;;;17.95;7.00;;;;;;;;;;5027375;28;20193;-73
2023/05/25 07:55:34;;;;;;;16.38;7.20;;;;;;;;;;5030567;28;20198;-72
2023/05/25 07:57:59;;;;;;;15.63;6.13;;;;;;;;;;5021126;28;20504;-73
2023/05/25 08:00:25;;;;;;;15.63;6.38;;;;;;;;;;5031523;28;20297;-73
2023/05/25 08:02:50;;;;;;;14.88;5.60;;;;;;;;;;5026143;28;20190;-74
2023/05/25 08:05:16;;;;;;;13.02;5.20;;;;;;;;;;5018999;28;20213;-73
2023/05/25 08:07:41;;;;;;;11.80;5.53;;;;;;;;;;5017973;28;20214;-74
2023/05/25 08:10:07;;;;;;;14.27;5.55;;;;;;;;;;5022939;28;20269;-73
2023/05/25 08:12:33;;;;;;;13.77;5.97;;;;;;;;;;5021249;28;20677;-74
2023/05/25 08:14:58;;;;;;;14.35;5.55;;;;;;;;;;5021462;28;20191;-74
2023/05/25 08:17:24;;;;;;;13.32;5.45;;;;;;;;;;5009018;28;20514;-75
2023/05/25 08:19:49;;;;;;;10.73;4.78;;;;;;;;;;5022456;28;20214;-74
2023/05/25 08:22:15;;;;;;;11.57;4.35;;;;;;;;;;5028688;28;20202;-73
2023/05/25 08:24:40;;;;;;;13.50;3.95;;;;;;;;;;5024142;28;20190;-73
2023/05/25 08:27:06;;;;;;;9.10;3.40;;;;;;;;;;5042788;28;20204;-74
2023/05/25 08:29:31;;;;;;;9.48;3.80;;;;;;;;;;5020011;28;20233;-73
2023/05/25 08:31:57;;;;;;;12.60;3.92;;;;;;;;;;5014022;28;20607;-72
2023/05/25 08:34:22;;;;;;;7.30;3.10;;;;;;;;;;5019939;28;20195;-71
2023/05/25 08:36:47;;;;;;;8.73;3.40;;;;;;;;;;5032848;28;20247;-73
2023/05/25 08:39:14;;;;;;;6.75;3.40;;;;;;;;;;5028233;28;20683;-72
2023/05/25 08:41:42;;;;;;;11.07;3.58;;;;;;;;;;5012898;28;20623;-73
2023/05/25 08:44:07;;;;;;;10.10;3.03;;;;;;;;;;5011094;28;20183;-73
2023/05/25 08:46:33;;;;;;;7.38;2.88;;;;;;;;;;5023441;28;20190;-71
2023/05/25 08:49:13;;;;;;;8.73;3.10;;;;;;;;;;5029561;28;20201;-74
2023/05/25 08:51:49;;;;;;;12.93;3.78;;;;;;;;;;5026023;28;20201;-73
2023/05/25 08:54:18;;;;;;;7.30;2.90;;;;;;;;;;5013878;28;20190;-74
2023/05/25 08:57:00;;;;;;;9.30;3.45;;;;;;;;;;5022067;28;20199;-74
2023/05/25 08:59:51;;;;;;;8.80;3.22;;;;;;;;;;5020150;28;20201;-73
2023/05/25 09:02:33;;;;;;;11.88;3.58;;;;;;;;;;5028821;28;20915;-73
2023/05/25 09:05:00;;;;;;;7.00;3.40;;;;;;;;;;5034331;28;20640;-73
2023/05/25 09:07:26;;;;;;;11.60;3.40;;;;;;;;;;5015926;28;20252;-73
2023/05/25 09:09:52;;;;;;;9.02;3.17;;;;;;;;;;5012620;28;20182;-73
2023/05/25 09:12:19;;;;;;;11.35;3.50;;;;;;;;;;5021573;28;20632;-73
2023/05/25 09:14:46;;;;;;;10.57;3.17;;;;;;;;;;5030726;28;20247;-72
2023/05/25 09:17:13;;;;;;;12.88;3.35;;;;;;;;;;5023935;28;20205;-74
2023/05/25 09:19:38;;;;;;;10.27;3.17;;;;;;;;;;5029880;28;20187;-72
2023/05/25 09:22:04;;;;;;;7.60;2.95;;;;;;;;;;5012400;28;20561;-72
2023/05/25 09:24:30;;;;;;;8.48;3.63;;;;;;;;;;5014033;28;20278;-73
2023/05/25 09:26:55;;;;;;;13.07;3.00;;;;;;;;;;5021856;28;20190;-71
2023/05/25 09:29:21;;;;;;;8.90;2.95;;;;;;;;;;5023811;28;20847;-73
2023/05/25 09:31:46;;;;;;;11.98;3.55;;;;;;;;;;5031394;28;20673;-72
2023/05/25 09:34:13;;;;;;;11.13;3.30;;;;;;;;;;5042125;28;20268;-73
2023/05/25 09:36:40;;;;;;;7.65;2.67;;;;;;;;;;5026781;28;20198;-73
2023/05/25 09:39:10;;;;;;;14.80;3.70;;;;;;;;;;5032376;28;20225;-73
2023/05/25 09:41:36;;;;;;;8.73;3.40;;;;;;;;;;5019649;28;20276;-73
2023/05/25 09:44:03;;;;;;;11.00;3.35;;;;;;;;;;5037177;28;20186;-69
2023/05/25 09:46:31;;;;;;;14.35;4.40;;;;;;;;;;5028161;28;20214;-72
2023/05/25 09:48:56;;;;;;;11.57;3.13;;;;;;;;;;5038080;28;20699;-70
2023/05/25 09:51:22;;;;;;;9.63;3.15;;;;;;;;;;5024346;28;20208;-67
2023/05/25 09:53:47;;;;;;;11.25;3.50;;;;;;;;;;5018994;28;20276;-72
2023/05/25 09:56:13;;;;;;;15.18;3.33;;;;;;;;;;5022137;28;20251;-71
2023/05/25 09:58:39;;;;;;;13.32;3.42;;;;;;;;;;5028305;28;20681;-73
2023/05/25 10:01:06;;;;;;;11.88;3.05;;;;;;;;;;5029429;28;20225;-71
2023/05/25 10:03:32;;;;;;;16.67;3.38;;;;;;;;;;5019950;28;20194;-71
2023/05/25 10:05:57;;;;;;;10.80;3.03;;;;;;;;;;5022198;28;20210;-74
2023/05/25 10:08:24;;;;;;;10.13;3.47;;;;;;;;;;5024192;28;20207;-71
2023/05/25 10:10:50;;;;;;;11.57;3.58;;;;;;;;;;5018127;28;20229;-73
2023/05/25 10:13:19;;;;;;;11.27;3.92;;;;;;;;;;5042626;28;20672;-73
2023/05/25 10:15:47;;;;;;;10.57;3.20;;;;;;;;;;5038924;28;20193;-71
2023/05/25 10:18:14;;;;;;;13.55;3.67;;;;;;;;;;5030986;28;20175;-72
2023/05/25 10:20:41;;;;;;;13.75;3.75;;;;;;;;;;5030610;28;20583;-72
2023/05/25 10:23:13;;;;;;;10.98;3.25;;;;;;;;;;5031206;28;20189;-74
2023/05/25 10:25:43;;;;;;;13.52;3.10;;;;;;;;;;5019703;28;20201;-73
2023/05/25 10:28:18;;;;;;;8.73;3.40;;;;;;;;;;5017616;28;20601;-72
2023/05/25 10:30:44;;;;;;;9.05;2.95;;;;;;;;;;5030246;28;20275;-72
2023/05/25 10:33:09;;;;;;;11.57;3.25;;;;;;;;;;5022420;28;20688;-72
2023/05/25 10:35:38;;;;;;;11.82;3.00;;;;;;;;;;5028711;28;20231;-72
2023/05/25 10:38:04;;;;;;;10.15;2.72;;;;;;;;;;5023921;28;20189;-72
2023/05/25 10:40:31;;;;;;;10.55;3.15;;;;;;;;;;5029033;28;20634;-70
2023/05/25 10:42:57;;;;;;;12.65;3.47;;;;;;;;;;5030835;28;20232;-66
2023/05/25 10:45:23;;;;;;;12.98;3.67;;;;;;;;;;5024953;28;20186;-71
2023/05/25 10:47:49;;;;;;;12.32;3.72;;;;;;;;;;5035485;28;20702;-70
2023/05/25 10:50:20;;;;;;;12.95;3.53;;;;;;;;;;5035438;28;20189;-71
2023/05/25 10:52:45;;;;;;;12.18;3.33;;;;;;;;;;5034526;28;20206;-73
2023/05/25 10:55:11;;;;;;;6.85;2.83;;;;;;;;;;5031031;28;20182;-73
2023/05/25 10:57:36;;;;;;;10.27;2.65;;;;;;;;;;5031182;28;20691;-73
2023/05/25 11:00:07;;;;;;;9.75;3.33;;;;;;;;;;5036678;28;20254;-72
2023/05/25 11:02:54;;;;;;;10.88;3.33;;;;;;;;;;5032615;28;20237;-72
2023/05/25 11:05:25;;;;;;;8.80;2.85;;;;;;;;;;5027801;28;20201;-71
2023/05/25 11:08:05;;;;;;;10.07;3.17;;;;;;;;;;5032132;28;20267;-72
2023/05/25 11:10:51;;;;;;;12.55;3.60;;;;;;;;;;5031845;28;20268;-72
2023/05/25 11:13:37;;;;;;;14.35;3.22;;;;;;;;;;5029146;28;20187;-71
2023/05/25 11:16:38;;;;;;;14.68;4.30;;;;;;;;;;5027874;28;20550;-71
2023/05/25 11:19:13;;;;;;;13.75;3.47;;;;;;;;;;5037433;28;20181;-68
2023/05/25 11:21:43;;;;;;;14.07;3.47;;;;;;;;;;5028527;28;20193;-71
2023/05/25 11:24:15;;;;;;;14.05;3.40;;;;;;;;;;5027978;28;20202;-70
2023/05/25 11:26:58;;;;;;;16.77;3.67;;;;;;;;;;5041724;28;20193;-70
2023/05/25 11:29:25;;;;;;;13.48;3.65;;;;;;;;;;5029527;28;20708;-71
2023/05/25 11:31:55;;;;;;;18.13;4.03;;;;;;;;;;5041516;28;20236;-72
2023/05/25 11:34:24;;;;;;;18.00;3.72;;;;;;;;;;5021845;28;20582;-72
2023/05/25 11:37:00;;;;;;;15.88;3.92;;;;;;;;;;5025135;28;20174;-69
2023/05/25 11:39:27;;;;;;;16.70;4.10;;;;;;;;;;5027611;28;20312;-74
2023/05/25 11:42:00;;;;;;;17.13;4.25;;;;;;;;;;5039463;28;20216;-73
2023/05/25 11:44:35;;;;;;;21.08;4.88;;;;;;;;;;5028055;28;20245;-73
2023/05/25 11:47:07;;;;;;;14.85;4.18;;;;;;;;;;5029774;28;20253;-72
2023/05/25 11:49:33;;;;;;;15.25;3.88;;;;;;;;;;5030009;28;20218;-73
2023/05/25 11:52:05;;;;;;;19.67;4.53;;;;;;;;;;5025846;28;20502;-72
2023/05/25 11:54:30;;;;;;;13.63;3.72;;;;;;;;;;5038894;28;20201;-70
2023/05/25 11:56:58;;;;;;;13.60;4.10;;;;;;;;;;5037704;28;20198;-71
2023/05/25 11:59:24;;;;;;;17.00;4.13;;;;;;;;;;5032729;28;20216;-72
2023/05/25 12:02:01;;;;;;;12.38;3.72;;;;;;;;;;5045621;28;20692;-70
2023/05/25 12:04:28;;;;;;;16.45;3.85;;;;;;;;;;5011177;28;20569;-72
2023/05/25 12:07:04;;;;;;;19.15;4.60;;;;;;;;;;5036877;28;20677;-71
2023/05/25 12:09:30;;;;;;;20.77;4.75;;;;;;;;;;5034524;28;20215;-72
2023/05/25 12:11:55;;;;;;;16.58;4.78;;;;;;;;;;5031667;28;20194;-71
2023/05/25 12:14:22;;;;;;;20.02;5.00;;;;;;;;;;5040121;28;20193;-71
2023/05/25 12:16:48;;;;;;;21.23;4.88;;;;;;;;;;5020327;28;20719;-72
2023/05/25 12:19:14;;;;;;;18.65;4.25;;;;;;;;;;5024837;28;20180;-73
2023/05/25 12:21:40;;;;;;;18.65;4.78;;;;;;;;;;5030990;28;20178;-71
2023/05/25 12:24:07;;;;;;;21.13;4.03;;;;;;;;;;5032220;28;20259;-73
2023/05/25 12:26:33;;;;;;;20.35;4.72;;;;;;;;;;5023246;28;20328;-74
2023/05/25 12:28:59;;;;;;;22.75;4.65;;;;;;;;;;5033630;28;20293;-72
2023/05/25 12:31:29;;;;;;;18.77;4.45;;;;;;;;;;5033012;28;20188;-72
2023/05/25 12:34:12;;;;;;;20.65;4.07;;;;;;;;;;5031561;28;20590;-72
2023/05/25 12:36:45;;;;;;;17.70;4.60;;;;;;;;;;5013195;28;20191;-69
2023/05/25 12:39:13;;;;;;;17.27;4.80;;;;;;;;;;4978577;28;1157930;-71
2023/05/25 12:41:50;;;;;;;16.60;4.03;;;;;;;;;;5017532;28;20615;-73
2023/05/25 12:44:17;;;;;;;17.63;4.65;;;;;;;;;;5038311;28;20197;-72
2023/05/25 12:46:42;;;;;;;18.75;4.72;;;;;;;;;;5030714;28;20245;-74
2023/05/25 12:49:21;;;;;;;18.42;4.10;;;;;;;;;;5029421;28;20206;-71
2023/05/25 12:51:46;;;;;;;19.70;4.88;;;;;;;;;;5028396;28;20186;-68
2023/05/25 12:54:12;;;;;;;21.52;4.93;;;;;;;;;;5033398;28;20185;-73
2023/05/25 12:56:56;;;;;;;21.80;5.15;;;;;;;;;;5033981;28;20285;-73
2023/05/25 12:59:21;;;;;;;23.73;4.53;;;;;;;;;;5041348;28;20194;-69
2023/05/25 13:01:47;;;;;;;22.67;4.88;;;;;;;;;;5035297;28;20312;-73
2023/05/25 13:04:12;;;;;;;18.23;4.70;;;;;;;;;;5027751;28;20639;-73
2023/05/25 13:06:38;;;;;;;20.75;4.38;;;;;;;;;;5038160;28;20502;-73
2023/05/25 13:09:03;;;;;;;19.83;4.95;;;;;;;;;;5012927;28;20235;-72
2023/05/25 13:11:29;;;;;;;17.98;4.57;;;;;;;;;;5032470;28;20200;-73
2023/05/25 13:13:55;;;;;;;20.08;5.30;;;;;;;;;;5034020;28;20207;-72
2023/05/25 13:16:21;;;;;;;22.65;5.00;;;;;;;;;;5028861;28;20194;-70
2023/05/25 13:18:46;;;;;;;19.80;4.88;;;;;;;;;;5024922;28;20474;-72
2023/05/25 13:21:11;;;;;;;20.90;4.88;;;;;;;;;;5024107;28;20204;-72
2023/05/25 13:23:37;;;;;;;14.25;3.75;;;;;;;;;;5024179;28;20514;-73
2023/05/25 13:26:02;;;;;;;18.23;4.70;;;;;;;;;;5030325;28;20185;-72
2023/05/25 13:28:27;;;;;;;14.43;3.83;;;;;;;;;;5024894;28;20210;-72
2023/05/25 13:30:53;;;;;;;17.85;4.18;;;;;;;;;;5030239;28;20197;-74
2023/05/25 13:33:18;;;;;;;20.23;4.57;;;;;;;;;;5030707;28;20201;-74
2023/05/25 13:36:06;;;;;;;20.85;4.45;;;;;;;;;;5027411;28;20705;-73
2023/05/25 13:38:35;;;;;;;15.70;3.85;;;;;;;;;;5012389;28;20901;-73
2023/05/25 13:41:02;;;;;;;17.95;3.58;;;;;;;;;;5016127;28;20189;-73
2023/05/25 13:43:27;;;;;;;17.52;4.70;;;;;;;;;;5027648;28;20320;-73
2023/05/25 13:45:53;;;;;;;22.30;4.53;;;;;;;;;;5015554;28;20266;-73
2023/05/25 13:48:18;;;;;;;21.33;5.00;;;;;;;;;;5018748;28;20214;-73
2023/05/25 13:50:44;;;;;;;19.52;4.97;;;;;;;;;;5022645;28;20190;-70
2023/05/25 13:53:10;;;;;;;17.25;4.65;;;;;;;;;;5029686;28;20217;-69
2023/05/25 13:55:36;;;;;;;17.35;4.38;;;;;;;;;;5026398;28;20195;-68
2023/05/25 13:58:01;;;;;;;19.50;5.00;;;;;;;;;;5018757;28;20523;-72
2023/05/25 14:00:26;;;;;;;21.10;4.78;;;;;;;;;;5039860;28;20293;-73
2023/05/25 14:02:52;;;;;;;15.43;3.75;;;;;;;;;;5033092;28;20185;-73
2023/05/25 14:05:18;;;;;;;17.65;4.13;;;;;;;;;;5021205;28;20537;-72
2023/05/25 14:07:45;;;;;;;21.10;5.00;;;;;;;;;;5009755;28;20670;-67
2023/05/25 14:10:11;;;;;;;14.95;4.18;;;;;;;;;;5020213;28;20185;-72
2023/05/25 14:12:36;;;;;;;16.42;4.63;;;;;;;;;;5033196;28;20605;-74
2023/05/25 14:15:02;;;;;;;16.63;4.28;;;;;;;;;;5045839;28;20181;-72
2023/05/25 14:17:27;;;;;;;16.58;3.95;;;;;;;;;;5037933;28;20186;-68
2023/05/25 14:19:53;;;;;;;22.48;4.45;;;;;;;;;;5027328;28;20194;-71
2023/05/25 14:22:18;;;;;;;17.42;4.85;;;;;;;;;;5036447;28;20266;-72
2023/05/25 14:24:43;;;;;;;14.13;4.43;;;;;;;;;;5028245;28;20194;-71
2023/05/25 14:27:09;;;;;;;16.23;4.57;;;;;;;;;;5024998;28;20186;-72
2023/05/25 14:29:35;;;;;;;18.45;4.53;;;;;;;;;;5027711;28;20224;-71
2023/05/25 14:32:01;;;;;;;22.52;4.50;;;;;;;;;;5025215;28;20900;-73